CYKZ/YKZ METAR and TAF weather

Enter ICAO airport designator
Station Type Date Time Source
CYKZ METAR 2018/04/21 20:00 UTC NOAA

CYKZ 212000Z 32009G19KT 15SM SCT220 13/M05 A3038 RMK CI3 SLP296


Station Type Date Time Source
CYKZ Decoded METAR 2018/04/21 20:00 UTC NOAA

Toronto Buttonville, Canada (CYKZ) 43-52N 079-22W
Apr 21, 2018 - 04:00 PM EDT / 2018.04.21 2000 UTC
Wind: from the NW (320 degrees) at 10 MPH (9 KT) gusting to 22 MPH (19 KT):0
Visibility: 15 mile(s):0
Sky conditions: partly cloudy
Temperature: 55 F (13 C)
Dew Point: 23 F (-5 C)
Relative Humidity: 28%
Pressure (altimeter): 30.38 in. Hg (1028 hPa)
ob: CYKZ 212000Z 32009G19KT 15SM SCT220 13/M05 A3038 RMK CI3 SLP296
cycle: 20

Station Type Date Time Source
CYKZ TAF 2018/04/21 18:39 UTC NOAA

TAF CYKZ 211738Z 2118/2206 33008KT P6SM FEW230
BECMG 2200/2202 33005KT
RMK NXT FCST BY 220000Z


Example: see airport list